Time;durP1;ratioP1;P1;durP2;ratioP2;P2;SDS_P1;SDS_P2;PMS_P1;PMS_P2;Temp;Humidity;BMP_temperature;BMP_pressure;BME280_temperature;BME280_humidity;BME280_pressure;Samples;Min_cycle;Max_cycle;Signal;HPM_P1;HPM_P2
2022/10/29 00:00:14;;;;;;;3.40;2.30;;;;;;;;;;10390003;28;20047;-55
2022/10/29 00:05:14;;;;;;;8.32;2.70;;;;;;;;;;10392883;28;20033;-53
2022/10/29 00:10:15;;;;;;;5.05;2.30;;;;;;;;;;10398121;28;20040;-62
2022/10/29 00:15:15;;;;;;;4.67;2.63;;;;;;;;;;10376645;28;20477;-49
2022/10/29 00:20:17;;;;;;;4.87;2.33;;;;;;;;;;10395926;28;20040;-48
2022/10/29 00:25:17;;;;;;;3.20;2.20;;;;;;;;;;10391713;28;20029;-48
2022/10/29 00:30:18;;;;;;;4.13;2.33;;;;;;;;;;10377051;28;20389;-48
2022/10/29 00:35:18;;;;;;;7.35;2.60;;;;;;;;;;10379380;28;20080;-61
2022/10/29 00:40:19;;;;;;;5.50;2.35;;;;;;;;;;10386847;28;20420;-57
2022/10/29 00:45:20;;;;;;;4.87;2.53;;;;;;;;;;10387949;28;20022;-51
2022/10/29 00:50:22;;;;;;;6.28;2.65;;;;;;;;;;10390224;28;21057;-48
2022/10/29 00:55:22;;;;;;;3.15;2.10;;;;;;;;;;10397066;28;20435;-62
2022/10/29 01:00:22;;;;;;;6.43;2.70;;;;;;;;;;10397999;28;20038;-61
2022/10/29 01:05:23;;;;;;;6.60;2.50;;;;;;;;;;10393367;28;20036;-49
2022/10/29 01:10:30;;;;;;;4.20;2.30;;;;;;;;;;10411520;28;20033;-51
2022/10/29 01:15:31;;;;;;;3.63;2.33;;;;;;;;;;10396844;28;20048;-52
2022/10/29 01:20:31;;;;;;;2.70;2.10;;;;;;;;;;10406464;28;20022;-48
2022/10/29 01:25:31;;;;;;;10.00;3.25;;;;;;;;;;10385272;28;20026;-47
2022/10/29 01:30:51;;;;;;;3.78;2.33;;;;;;;;;;10376179;28;20111;-47
2022/10/29 01:36:03;;;;;;;4.18;2.33;;;;;;;;;;10394646;28;20109;-47
2022/10/29 01:41:03;;;;;;;2.72;2.20;;;;;;;;;;10398073;28;20029;-48
2022/10/29 01:46:07;;;;;;;5.60;2.50;;;;;;;;;;10398300;28;20025;-47
2022/10/29 01:51:10;;;;;;;4.07;1.98;;;;;;;;;;10402140;28;20030;-59
2022/10/29 01:56:10;;;;;;;5.90;2.00;;;;;;;;;;10383490;28;20021;-54
2022/10/29 02:01:37;;;;;;;2.95;2.10;;;;;;;;;;10400444;28;20041;-51
2022/10/29 02:07:03;;;;;;;8.27;2.15;;;;;;;;;;10372158;28;20453;-64
2022/10/29 02:12:10;;;;;;;5.38;2.30;;;;;;;;;;10383566;28;20150;-64
2022/10/29 02:17:11;;;;;;;2.00;1.75;;;;;;;;;;10399047;28;20045;-64
2022/10/29 02:22:11;;;;;;;3.17;2.20;;;;;;;;;;10404157;28;20108;-62
2022/10/29 02:27:11;;;;;;;2.53;2.00;;;;;;;;;;10394782;28;20036;-65
2022/10/29 02:32:11;;;;;;;2.22;1.77;;;;;;;;;;10398737;28;20038;-63
2022/10/29 02:37:12;;;;;;;2.22;1.80;;;;;;;;;;10395718;28;20025;-64
2022/10/29 02:42:12;;;;;;;2.85;1.70;;;;;;;;;;10396040;28;20076;-62
2022/10/29 02:47:12;;;;;;;2.28;1.70;;;;;;;;;;10406313;28;20052;-63
2022/10/29 02:52:13;;;;;;;5.07;1.92;;;;;;;;;;10400003;28;20079;-62
2022/10/29 02:57:13;;;;;;;2.53;2.25;;;;;;;;;;10402134;28;20037;-58
2022/10/29 03:02:13;;;;;;;3.10;1.65;;;;;;;;;;10383114;28;20079;-63
2022/10/29 03:07:13;;;;;;;7.57;2.58;;;;;;;;;;10386753;28;20029;-62
2022/10/29 03:12:14;;;;;;;4.53;1.73;;;;;;;;;;10408143;28;20117;-61
2022/10/29 03:17:14;;;;;;;6.38;2.08;;;;;;;;;;10402107;28;20052;-64
2022/10/29 03:22:14;;;;;;;3.65;1.95;;;;;;;;;;10390131;28;20029;-61
2022/10/29 03:27:14;;;;;;;2.78;2.13;;;;;;;;;;10391222;28;20029;-60
2022/10/29 03:32:15;;;;;;;4.53;2.00;;;;;;;;;;10398829;28;20086;-63
2022/10/29 03:37:15;;;;;;;2.50;2.00;;;;;;;;;;10398111;28;20030;-61
2022/10/29 03:42:15;;;;;;;2.30;1.70;;;;;;;;;;10401944;28;20426;-63
2022/10/29 03:47:15;;;;;;;8.88;1.70;;;;;;;;;;10409988;28;20374;-63
2022/10/29 03:52:16;;;;;;;2.05;1.67;;;;;;;;;;10385692;28;20029;-62
2022/10/29 03:57:16;;;;;;;2.40;1.90;;;;;;;;;;10383810;28;20029;-63
2022/10/29 04:02:16;;;;;;;2.17;1.80;;;;;;;;;;10393010;28;20069;-61
2022/10/29 04:07:16;;;;;;;3.25;2.17;;;;;;;;;;10394089;28;20030;-64
2022/10/29 04:12:17;;;;;;;4.00;1.70;;;;;;;;;;10374170;28;20108;-49
2022/10/29 04:17:17;;;;;;;3.60;2.00;;;;;;;;;;10382995;28;20095;-49
2022/10/29 04:22:17;;;;;;;4.68;2.05;;;;;;;;;;10405634;28;20025;-59
2022/10/29 04:27:17;;;;;;;2.80;1.60;;;;;;;;;;10401605;28;20079;-57
2022/10/29 04:32:18;;;;;;;1.98;1.67;;;;;;;;;;10385858;28;20025;-58
2022/10/29 04:37:18;;;;;;;2.53;1.98;;;;;;;;;;10399570;28;20116;-56
2022/10/29 04:42:18;;;;;;;6.03;2.00;;;;;;;;;;10410417;28;20476;-58
2022/10/29 04:47:18;;;;;;;8.82;2.00;;;;;;;;;;10408459;28;20391;-59
2022/10/29 04:52:19;;;;;;;10.30;2.22;;;;;;;;;;10398085;28;20095;-47
2022/10/29 04:57:19;;;;;;;13.93;2.53;;;;;;;;;;10404819;28;20033;-48
2022/10/29 05:02:19;;;;;;;2.67;1.92;;;;;;;;;;10409097;28;20053;-50
2022/10/29 05:07:19;;;;;;;3.75;2.17;;;;;;;;;;10407917;28;20029;-49
2022/10/29 05:12:20;;;;;;;3.63;1.90;;;;;;;;;;10407251;28;20018;-56
2022/10/29 05:17:20;;;;;;;6.03;2.28;;;;;;;;;;10409861;28;20023;-57
2022/10/29 05:22:20;;;;;;;3.30;2.10;;;;;;;;;;10410194;28;20033;-58
2022/10/29 05:27:20;;;;;;;4.93;2.42;;;;;;;;;;10408221;28;20029;-57
2022/10/29 05:32:21;;;;;;;7.90;2.30;;;;;;;;;;10404854;28;20025;-58
2022/10/29 05:37:24;;;;;;;16.67;2.65;;;;;;;;;;10399517;28;20022;-55
2022/10/29 05:42:24;;;;;;;7.47;2.42;;;;;;;;;;10406163;28;20048;-59
2022/10/29 05:47:24;;;;;;;7.38;2.78;;;;;;;;;;10409015;28;20059;-59
2022/10/29 05:52:25;;;;;;;9.40;2.90;;;;;;;;;;10397063;28;20160;-60
2022/10/29 05:57:26;;;;;;;6.18;2.70;;;;;;;;;;10411384;28;20032;-57
2022/10/29 06:02:26;;;;;;;4.43;2.65;;;;;;;;;;10400891;28;20193;-60
2022/10/29 06:07:26;;;;;;;3.80;2.35;;;;;;;;;;10396540;28;20287;-58
2022/10/29 06:12:29;;;;;;;4.63;2.70;;;;;;;;;;10396189;28;20041;-49
2022/10/29 06:17:30;;;;;;;6.93;2.78;;;;;;;;;;10409215;28;20033;-49
2022/10/29 06:22:30;;;;;;;5.18;2.63;;;;;;;;;;10409374;28;20381;-48
2022/10/29 06:27:30;;;;;;;6.60;2.83;;;;;;;;;;10406488;28;20092;-52
2022/10/29 06:32:30;;;;;;;9.00;2.73;;;;;;;;;;10408185;28;20373;-51
2022/10/29 06:37:32;;;;;;;11.33;3.03;;;;;;;;;;10407278;28;20038;-49
2022/10/29 06:42:32;;;;;;;9.52;3.75;;;;;;;;;;10406427;28;20511;-50
2022/10/29 06:47:42;;;;;;;8.38;3.97;;;;;;;;;;10390792;28;20026;-48
2022/10/29 06:52:43;;;;;;;12.75;4.32;;;;;;;;;;10397927;28;20389;-50
2022/10/29 06:57:43;;;;;;;5.55;3.97;;;;;;;;;;10407000;28;20040;-55
2022/10/29 07:02:43;;;;;;;6.57;4.53;;;;;;;;;;10403019;28;20061;-53
2022/10/29 07:07:44;;;;;;;10.30;4.57;;;;;;;;;;10406011;28;20064;-53
2022/10/29 07:12:44;;;;;;;17.67;4.20;;;;;;;;;;10403138;28;20030;-55
2022/10/29 07:18:01;;;;;;;11.47;4.57;;;;;;;;;;10403345;28;20025;-53
2022/10/29 07:23:01;;;;;;;15.80;4.75;;;;;;;;;;10404912;28;20085;-50
2022/10/29 07:28:02;;;;;;;16.25;4.00;;;;;;;;;;10403065;28;20037;-50
2022/10/29 07:33:02;;;;;;;10.20;4.68;;;;;;;;;;10398259;28;20022;-53
2022/10/29 07:38:04;;;;;;;15.23;4.50;;;;;;;;;;10401316;28;20372;-52
2022/10/29 07:43:05;;;;;;;8.48;4.18;;;;;;;;;;10404623;28;20067;-53
2022/10/29 07:48:08;;;;;;;15.13;4.10;;;;;;;;;;10398982;28;20094;-52
2022/10/29 07:53:09;;;;;;;8.50;4.47;;;;;;;;;;10405947;28;20034;-56
2022/10/29 07:58:10;;;;;;;8.45;4.30;;;;;;;;;;10418200;28;20049;-54
2022/10/29 08:03:11;;;;;;;16.45;4.35;;;;;;;;;;10402733;28;20022;-56
2022/10/29 08:08:11;;;;;;;10.07;4.40;;;;;;;;;;10403119;28;20026;-54
2022/10/29 08:13:11;;;;;;;16.58;4.97;;;;;;;;;;10397555;28;20100;-51
2022/10/29 08:18:15;;;;;;;10.73;4.70;;;;;;;;;;10398121;28;20060;-51
2022/10/29 08:23:15;;;;;;;14.90;4.88;;;;;;;;;;10378143;28;20357;-57
2022/10/29 08:28:16;;;;;;;12.85;5.18;;;;;;;;;;10373451;28;20022;-60
2022/10/29 08:33:17;;;;;;;16.60;5.60;;;;;;;;;;10370652;28;20034;-58
2022/10/29 08:38:17;;;;;;;17.17;5.35;;;;;;;;;;10369613;28;20030;-58
2022/10/29 08:43:26;;;;;;;10.88;4.35;;;;;;;;;;10399769;28;20059;-58
2022/10/29 08:48:29;;;;;;;12.43;4.53;;;;;;;;;;10390962;28;20034;-56
2022/10/29 08:53:38;;;;;;;13.32;5.28;;;;;;;;;;10391618;28;20080;-56
2022/10/29 08:58:52;;;;;;;9.65;4.30;;;;;;;;;;10401942;28;20061;-58
2022/10/29 09:03:53;;;;;;;14.95;4.50;;;;;;;;;;10411457;28;20382;-59
2022/10/29 09:08:57;;;;;;;12.98;4.60;;;;;;;;;;10402351;28;20276;-58
2022/10/29 09:13:58;;;;;;;8.55;4.32;;;;;;;;;;10392524;28;20033;-59
2022/10/29 09:18:58;;;;;;;10.70;4.15;;;;;;;;;;10405213;28;20026;-56
2022/10/29 09:24:07;;;;;;;8.77;4.70;;;;;;;;;;10420441;28;20436;-58
2022/10/29 09:29:10;;;;;;;15.90;4.80;;;;;;;;;;10398529;28;20038;-58
2022/10/29 09:34:16;;;;;;;9.88;4.25;;;;;;;;;;10413675;28;20113;-58
2022/10/29 09:39:26;;;;;;;13.68;3.97;;;;;;;;;;10400874;28;20347;-58
2022/10/29 09:44:34;;;;;;;8.32;4.45;;;;;;;;;;10410703;28;20104;-58
2022/10/29 09:49:43;;;;;;;10.75;3.92;;;;;;;;;;10394576;28;20052;-59
2022/10/29 09:54:44;;;;;;;11.43;4.07;;;;;;;;;;10405356;28;20060;-59
2022/10/29 09:59:47;;;;;;;11.00;4.05;;;;;;;;;;10397269;28;20556;-59
2022/10/29 10:04:48;;;;;;;8.05;3.97;;;;;;;;;;10401121;28;20045;-59
2022/10/29 10:10:02;;;;;;;7.18;3.92;;;;;;;;;;10402903;28;20435;-59
2022/10/29 10:15:14;;;;;;;12.35;4.05;;;;;;;;;;10402231;28;20025;-57
2022/10/29 10:20:26;;;;;;;7.78;4.00;;;;;;;;;;10408631;28;20029;-58
2022/10/29 10:25:35;;;;;;;9.55;3.83;;;;;;;;;;10398489;28;20256;-58
2022/10/29 10:30:35;;;;;;;11.73;4.20;;;;;;;;;;10403332;28;20470;-59
2022/10/29 10:35:36;;;;;;;13.32;3.85;;;;;;;;;;10406881;28;20038;-56
2022/10/29 10:40:36;;;;;;;9.23;3.63;;;;;;;;;;10405569;28;20040;-58
2022/10/29 10:45:38;;;;;;;9.27;4.32;;;;;;;;;;10418266;28;20037;-57
2022/10/29 10:50:39;;;;;;;12.55;4.47;;;;;;;;;;10410417;28;20038;-59
2022/10/29 10:55:45;;;;;;;11.40;4.28;;;;;;;;;;10410175;28;20041;-57
2022/10/29 11:00:52;;;;;;;15.52;4.38;;;;;;;;;;10407043;28;20129;-58
2022/10/29 11:05:58;;;;;;;10.43;4.53;;;;;;;;;;10402187;28;20120;-51
2022/10/29 11:11:14;;;;;;;9.38;4.38;;;;;;;;;;10396227;28;20036;-57
2022/10/29 11:16:15;;;;;;;16.67;4.70;;;;;;;;;;10396257;28;20060;-58
2022/10/29 11:21:22;;;;;;;9.83;3.50;;;;;;;;;;10409970;28;20060;-57
2022/10/29 11:26:38;;;;;;;9.85;3.65;;;;;;;;;;10397487;28;20032;-58
2022/10/29 11:31:38;;;;;;;7.95;3.97;;;;;;;;;;10402457;28;20029;-58
2022/10/29 11:36:40;;;;;;;9.10;3.72;;;;;;;;;;10372972;28;20045;-55
2022/10/29 11:41:40;;;;;;;7.97;3.75;;;;;;;;;;10369567;28;20033;-58
2022/10/29 11:47:02;;;;;;;10.98;3.72;;;;;;;;;;10377423;28;20029;-59
2022/10/29 11:52:09;;;;;;;7.53;3.10;;;;;;;;;;10381155;28;20065;-58
2022/10/29 11:57:28;;;;;;;7.80;3.50;;;;;;;;;;10371539;28;20037;-58
2022/10/29 12:02:29;;;;;;;7.15;3.72;;;;;;;;;;10387227;28;20046;-58
2022/10/29 12:07:32;;;;;;;6.15;4.10;;;;;;;;;;10375252;28;20037;-59
2022/10/29 12:12:32;;;;;;;6.43;3.70;;;;;;;;;;10378085;28;20026;-58
2022/10/29 12:17:35;;;;;;;6.88;3.70;;;;;;;;;;10402423;28;20033;-58
2022/10/29 12:22:59;;;;;;;7.78;3.83;;;;;;;;;;10380034;28;20034;-58
2022/10/29 12:28:20;;;;;;;6.03;3.78;;;;;;;;;;10374488;28;20056;-58
2022/10/29 12:33:26;;;;;;;9.07;4.03;;;;;;;;;;10378270;28;20120;-58
2022/10/29 12:38:38;;;;;;;9.18;3.55;;;;;;;;;;10382112;28;20069;-58
2022/10/29 12:43:39;;;;;;;10.40;3.85;;;;;;;;;;10377569;28;20034;-59
2022/10/29 12:48:45;;;;;;;12.77;3.92;;;;;;;;;;10396895;28;20555;-59
2022/10/29 12:53:56;;;;;;;14.50;4.13;;;;;;;;;;10408985;28;20029;-60
2022/10/29 12:59:16;;;;;;;9.85;4.03;;;;;;;;;;10401599;28;20041;-57
2022/10/29 13:04:35;;;;;;;15.40;3.78;;;;;;;;;;10386348;28;20279;-55
2022/10/29 13:09:35;;;;;;;;;;;;;;;;;;10384425;28;20431;-58
2022/10/29 13:14:38;;;;;;;8.85;4.18;;;;;;;;;;10410401;28;19927;-58
2022/10/29 13:19:51;;;;;;;9.25;4.13;;;;;;;;;;10411063;28;20029;-58
2022/10/29 13:25:10;;;;;;;6.28;3.85;;;;;;;;;;10414749;28;20565;-59
2022/10/29 13:30:19;;;;;;;7.75;3.92;;;;;;;;;;10412881;28;20053;-58
2022/10/29 13:35:23;;;;;;;10.73;3.60;;;;;;;;;;10418273;28;20044;-59
2022/10/29 13:40:29;;;;;;;6.65;3.72;;;;;;;;;;10411340;28;20017;-59
2022/10/29 13:45:30;;;;;;;8.55;3.47;;;;;;;;;;10413634;28;20033;-59
2022/10/29 13:50:32;;;;;;;8.90;3.53;;;;;;;;;;10418898;28;20165;-54
2022/10/29 13:55:32;;;;;;;10.70;3.78;;;;;;;;;;10419423;28;20021;-58
2022/10/29 14:00:34;;;;;;;5.25;3.15;;;;;;;;;;10411656;28;20053;-57
2022/10/29 14:05:41;;;;;;;6.13;3.50;;;;;;;;;;10403741;28;20033;-56
2022/10/29 14:10:44;;;;;;;7.18;4.13;;;;;;;;;;10411199;28;20538;-58
2022/10/29 14:16:03;;;;;;;6.80;3.22;;;;;;;;;;10411226;28;20021;-57
2022/10/29 14:21:04;;;;;;;9.98;3.40;;;;;;;;;;10419209;28;20068;-58
2022/10/29 14:26:13;;;;;;;5.45;3.15;;;;;;;;;;10410573;28;20055;-56
2022/10/29 14:31:13;;;;;;;;;;;;;;;;;;10412085;28;20030;-58
2022/10/29 14:36:16;;;;;;;7.72;3.15;;;;;;;;;;10381551;28;19920;-59
2022/10/29 14:41:17;;;;;;;8.30;3.70;;;;;;;;;;10409592;28;20116;-55
2022/10/29 14:46:21;;;;;;;4.78;3.00;;;;;;;;;;10409813;28;20100;-57
2022/10/29 14:51:21;;;;;;;6.88;3.38;;;;;;;;;;10405105;28;20132;-57
2022/10/29 14:56:30;;;;;;;5.53;3.20;;;;;;;;;;10414221;28;20486;-58
2022/10/29 15:01:30;;;;;;;5.78;2.85;;;;;;;;;;10410322;28;20045;-58
2022/10/29 15:06:31;;;;;;;5.17;3.50;;;;;;;;;;10409208;28;20464;-56
2022/10/29 15:11:32;;;;;;;5.50;2.73;;;;;;;;;;10409031;28;20105;-58
2022/10/29 15:16:32;;;;;;;6.10;3.13;;;;;;;;;;10395220;28;20459;-54
2022/10/29 15:21:33;;;;;;;6.63;3.03;;;;;;;;;;10404747;28;20032;-56
2022/10/29 15:26:33;;;;;;;9.73;2.90;;;;;;;;;;10373981;28;20492;-59
2022/10/29 15:31:45;;;;;;;6.88;2.97;;;;;;;;;;10415499;28;20029;-57
2022/10/29 15:36:47;;;;;;;4.32;2.97;;;;;;;;;;10394870;28;20033;-54
2022/10/29 15:41:48;;;;;;;4.63;2.92;;;;;;;;;;10407526;28;20120;-57
2022/10/29 15:46:49;;;;;;;9.32;3.00;;;;;;;;;;10403188;28;20032;-57
2022/10/29 15:51:50;;;;;;;6.00;2.70;;;;;;;;;;10391857;28;20112;-58
2022/10/29 15:56:50;;;;;;;3.10;2.45;;;;;;;;;;10426417;28;20033;-57
2022/10/29 16:01:50;;;;;;;4.05;2.60;;;;;;;;;;10408102;28;20037;-58
2022/10/29 16:06:51;;;;;;;2.57;2.20;;;;;;;;;;10406727;28;20117;-57
2022/10/29 16:11:51;;;;;;;6.70;3.20;;;;;;;;;;10412659;28;20033;-58
2022/10/29 16:16:51;;;;;;;4.18;2.72;;;;;;;;;;10416661;28;20111;-56
2022/10/29 16:21:52;;;;;;;7.22;2.70;;;;;;;;;;10418989;28;20033;-58
2022/10/29 16:26:52;;;;;;;5.15;2.78;;;;;;;;;;10415312;28;20038;-58
2022/10/29 16:31:52;;;;;;;2.67;2.40;;;;;;;;;;10416702;28;20059;-58
2022/10/29 16:36:52;;;;;;;5.53;2.60;;;;;;;;;;10402965;28;20217;-58
2022/10/29 16:41:53;;;;;;;5.03;3.00;;;;;;;;;;10392201;28;20033;-58
2022/10/29 16:46:53;;;;;;;4.53;2.70;;;;;;;;;;10396028;28;20045;-57
2022/10/29 16:51:56;;;;;;;4.20;2.53;;;;;;;;;;10382282;28;20018;-56
2022/10/29 16:56:56;;;;;;;3.30;2.47;;;;;;;;;;10381498;28;20428;-57
2022/10/29 17:01:57;;;;;;;3.53;2.47;;;;;;;;;;10423901;28;20046;-59
2022/10/29 17:06:57;;;;;;;3.78;2.67;;;;;;;;;;10413677;28;20040;-56
2022/10/29 17:11:57;;;;;;;4.88;2.80;;;;;;;;;;10414114;28;20045;-58
2022/10/29 17:16:59;;;;;;;3.35;2.50;;;;;;;;;;10411090;28;20029;-57
2022/10/29 17:21:59;;;;;;;3.92;2.60;;;;;;;;;;10408120;28;20040;-54
2022/10/29 17:26:59;;;;;;;2.70;2.30;;;;;;;;;;10399635;28;20487;-54
2022/10/29 17:32:00;;;;;;;3.35;2.47;;;;;;;;;;10415972;28;20033;-58
2022/10/29 17:37:00;;;;;;;3.85;2.45;;;;;;;;;;10411240;28;20041;-55
2022/10/29 17:42:01;;;;;;;10.27;3.10;;;;;;;;;;10421020;28;20084;-51
2022/10/29 17:47:01;;;;;;;24.00;3.50;;;;;;;;;;10391536;28;20029;-57
2022/10/29 17:52:01;;;;;;;9.82;3.25;;;;;;;;;;10401096;28;20533;-58
2022/10/29 17:57:02;;;;;;;9.95;3.38;;;;;;;;;;10379860;28;20030;-56
2022/10/29 18:02:02;;;;;;;6.65;3.08;;;;;;;;;;10387995;28;20050;-56
2022/10/29 18:07:02;;;;;;;8.25;2.70;;;;;;;;;;10375164;28;20033;-58
2022/10/29 18:12:02;;;;;;;9.65;3.45;;;;;;;;;;10380026;28;20109;-57
2022/10/29 18:17:03;;;;;;;6.00;3.20;;;;;;;;;;10377067;28;21345;-57
2022/10/29 18:22:03;;;;;;;6.32;2.90;;;;;;;;;;10392292;28;20618;-59
2022/10/29 18:27:03;;;;;;;6.07;3.17;;;;;;;;;;10395925;28;20041;-57
2022/10/29 18:32:04;;;;;;;6.20;3.00;;;;;;;;;;10399044;28;20117;-57
2022/10/29 18:37:05;;;;;;;10.17;3.37;;;;;;;;;;10402453;28;20099;-59
2022/10/29 18:42:05;;;;;;;6.75;2.90;;;;;;;;;;10405126;28;20050;-58
2022/10/29 18:47:06;;;;;;;7.40;2.97;;;;;;;;;;10395028;28;20544;-59
2022/10/29 18:52:06;;;;;;;8.63;3.00;;;;;;;;;;10407045;28;20455;-53
2022/10/29 18:57:06;;;;;;;7.15;3.10;;;;;;;;;;10406780;28;20472;-57
2022/10/29 19:02:09;;;;;;;6.50;3.25;;;;;;;;;;10409177;28;20468;-58
2022/10/29 19:07:09;;;;;;;4.13;2.78;;;;;;;;;;10404807;28;20033;-59
2022/10/29 19:12:11;;;;;;;4.22;2.80;;;;;;;;;;10406981;28;20107;-57
2022/10/29 19:17:11;;;;;;;5.10;2.92;;;;;;;;;;10405811;28;20043;-56
2022/10/29 19:22:12;;;;;;;4.15;2.38;;;;;;;;;;10402765;28;20361;-58
2022/10/29 19:27:12;;;;;;;31.35;3.55;;;;;;;;;;10399733;28;20037;-56
2022/10/29 19:32:12;;;;;;;11.82;4.78;;;;;;;;;;10391397;28;20038;-59
2022/10/29 19:37:13;;;;;;;12.95;4.13;;;;;;;;;;10389096;28;20476;-56
2022/10/29 19:42:14;;;;;;;10.65;3.50;;;;;;;;;;10403972;28;20034;-59
2022/10/29 19:47:14;;;;;;;11.02;3.65;;;;;;;;;;10396412;28;20116;-55
2022/10/29 19:52:15;;;;;;;9.23;3.17;;;;;;;;;;10399545;28;20410;-58
2022/10/29 19:57:15;;;;;;;7.88;3.78;;;;;;;;;;10399622;28;20044;-59
2022/10/29 20:02:15;;;;;;;8.10;3.20;;;;;;;;;;10387313;28;20048;-58
2022/10/29 20:07:15;;;;;;;6.40;3.55;;;;;;;;;;10397604;28;20034;-55
2022/10/29 20:12:16;;;;;;;6.95;3.58;;;;;;;;;;10385982;28;20026;-57
2022/10/29 20:17:16;;;;;;;11.53;3.10;;;;;;;;;;10386463;28;20029;-53
2022/10/29 20:22:16;;;;;;;7.03;3.30;;;;;;;;;;10384902;28;20029;-57
2022/10/29 20:27:17;;;;;;;6.43;3.28;;;;;;;;;;10394472;28;20038;-59
2022/10/29 20:32:17;;;;;;;6.10;3.05;;;;;;;;;;10398688;28;20034;-58
2022/10/29 20:37:17;;;;;;;6.15;3.03;;;;;;;;;;10387117;28;20060;-58
2022/10/29 20:42:17;;;;;;;5.45;3.20;;;;;;;;;;10401499;28;20428;-54
2022/10/29 20:47:18;;;;;;;8.85;3.22;;;;;;;;;;10395316;28;20076;-55
2022/10/29 20:52:18;;;;;;;7.35;3.42;;;;;;;;;;10396371;28;20025;-53
2022/10/29 20:57:18;;;;;;;9.30;3.58;;;;;;;;;;10403944;28;20033;-58
2022/10/29 21:02:18;;;;;;;7.20;3.38;;;;;;;;;;10401082;28;20033;-56
2022/10/29 21:07:19;;;;;;;8.23;3.72;;;;;;;;;;10394912;28;20040;-53
2022/10/29 21:12:19;;;;;;;6.18;3.20;;;;;;;;;;10384016;28;20034;-58
2022/10/29 21:17:20;;;;;;;5.75;3.72;;;;;;;;;;10408727;28;20025;-57
2022/10/29 21:22:21;;;;;;;8.48;3.80;;;;;;;;;;10412772;28;20040;-56
2022/10/29 21:27:21;;;;;;;7.27;3.23;;;;;;;;;;10412162;28;20036;-54
2022/10/29 21:32:21;;;;;;;6.10;3.10;;;;;;;;;;10413057;28;20017;-55
2022/10/29 21:37:22;;;;;;;5.40;3.03;;;;;;;;;;10377796;28;20033;-58
2022/10/29 21:42:22;;;;;;;6.57;3.03;;;;;;;;;;10404793;28;20033;-55
2022/10/29 21:47:22;;;;;;;4.30;3.13;;;;;;;;;;10409283;28;20491;-57
2022/10/29 21:52:22;;;;;;;10.27;3.37;;;;;;;;;;10399313;28;20112;-56
2022/10/29 21:57:23;;;;;;;5.93;3.05;;;;;;;;;;10386578;28;20129;-57
2022/10/29 22:02:23;;;;;;;6.22;3.47;;;;;;;;;;10386636;28;20532;-58
2022/10/29 22:07:23;;;;;;;6.47;3.40;;;;;;;;;;10398552;28;20025;-57
2022/10/29 22:12:23;;;;;;;6.10;2.80;;;;;;;;;;10382006;28;20018;-58
2022/10/29 22:17:26;;;;;;;7.53;3.30;;;;;;;;;;10396618;28;20052;-58
2022/10/29 22:22:26;;;;;;;7.25;3.30;;;;;;;;;;10395431;28;20029;-56
2022/10/29 22:27:26;;;;;;;5.10;3.10;;;;;;;;;;10394766;28;20034;-54
2022/10/29 22:32:27;;;;;;;6.78;3.60;;;;;;;;;;10390471;28;20028;-56
2022/10/29 22:37:27;;;;;;;5.40;3.42;;;;;;;;;;10397072;28;20043;-55
2022/10/29 22:42:27;;;;;;;6.10;3.10;;;;;;;;;;10408345;28;20025;-57
2022/10/29 22:47:27;;;;;;;4.85;3.00;;;;;;;;;;10405833;28;20033;-56
2022/10/29 22:52:28;;;;;;;5.55;3.30;;;;;;;;;;10404117;28;20032;-56
2022/10/29 22:57:28;;;;;;;6.47;2.90;;;;;;;;;;10400640;28;20068;-59
2022/10/29 23:02:28;;;;;;;8.93;3.80;;;;;;;;;;10406788;28;20041;-57
2022/10/29 23:07:29;;;;;;;7.53;3.22;;;;;;;;;;10407959;28;20034;-57
2022/10/29 23:12:29;;;;;;;6.18;3.17;;;;;;;;;;10407817;28;20033;-58
2022/10/29 23:17:29;;;;;;;4.78;3.63;;;;;;;;;;10408519;28;20032;-56
2022/10/29 23:22:29;;;;;;;5.97;3.30;;;;;;;;;;10408718;28;20522;-56
2022/10/29 23:27:30;;;;;;;6.53;3.92;;;;;;;;;;10408365;28;20060;-58
2022/10/29 23:32:30;;;;;;;7.20;3.28;;;;;;;;;;10407794;28;20029;-53
2022/10/29 23:37:30;;;;;;;13.20;3.30;;;;;;;;;;10385323;28;20044;-56
2022/10/29 23:42:30;;;;;;;4.23;3.20;;;;;;;;;;10402069;28;20095;-57
2022/10/29 23:47:31;;;;;;;5.00;3.45;;;;;;;;;;10420922;28;20048;-58
2022/10/29 23:52:31;;;;;;;5.57;3.58;;;;;;;;;;10407263;28;20025;-55
2022/10/29 23:57:31;;;;;;;4.93;3.08;;;;;;;;;;10414449;28;21365;-53
